Time;durP1;ratioP1;P1;durP2;ratioP2;P2;SDS_P1;SDS_P2;PMS_P1;PMS_P2;Temp;Humidity;BMP_temperature;BMP_pressure;BME280_temperature;BME280_humidity;BME280_pressure;Samples;Min_cycle;Max_cycle;Signal;HPM_P1;HPM_P2
2022/04/16 00:00:50;;;;;;;;;22.25;18.25;;;;;;;;5054415;28;46220;-81
2022/04/16 00:03:16;;;;;;;;;20.50;18.00;;;;;;;;5054907;28;45557;-82
2022/04/16 00:05:41;;;;;;;;;23.00;19.25;;;;;;;;5054484;28;45546;-83
2022/04/16 00:08:06;;;;;;;;;20.50;19.00;;;;;;;;5057417;28;45323;-83
2022/04/16 00:10:35;;;;;;;;;18.50;15.00;;;;;;;;5056177;28;47033;-83
2022/04/16 00:13:01;;;;;;;;;20.50;19.25;;;;;;;;5054835;28;45516;-82
2022/04/16 00:15:26;;;;;;;;;19.75;18.00;;;;;;;;5054475;28;45341;-82
2022/04/16 00:17:52;;;;;;;;;19.50;18.50;;;;;;;;5054459;28;45479;-83
2022/04/16 00:20:17;;;;;;;;;21.75;19.00;;;;;;;;5054142;28;46118;-81
2022/04/16 00:22:42;;;;;;;;;18.50;17.50;;;;;;;;5055644;28;45354;-81
2022/04/16 00:25:08;;;;;;;;;19.75;19.00;;;;;;;;5055409;28;45347;-82
2022/04/16 00:27:34;;;;;;;;;20.00;18.50;;;;;;;;5056066;27;45437;-82
2022/04/16 00:29:59;;;;;;;;;17.50;16.25;;;;;;;;5054764;28;47096;-83
2022/04/16 00:32:24;;;;;;;;;19.50;18.00;;;;;;;;5053998;28;45286;-84
2022/04/16 00:34:50;;;;;;;;;22.25;19.75;;;;;;;;5054675;28;45353;-84
2022/04/16 00:37:15;;;;;;;;;18.25;16.25;;;;;;;;5054096;28;45339;-81
2022/04/16 00:39:41;;;;;;;;;15.00;15.00;;;;;;;;5054018;28;46067;-82
2022/04/16 00:42:06;;;;;;;;;18.25;17.75;;;;;;;;5053323;28;45422;-83
2022/04/16 00:44:31;;;;;;;;;21.50;19.75;;;;;;;;5053976;28;45594;-83
2022/04/16 00:46:57;;;;;;;;;20.50;18.25;;;;;;;;5054152;28;45324;-82
2022/04/16 00:49:22;;;;;;;;;21.75;20.50;;;;;;;;5055133;28;45280;-83
2022/04/16 00:51:48;;;;;;;;;19.50;16.00;;;;;;;;5053384;28;45559;-83
2022/04/16 00:54:13;;;;;;;;;24.25;18.75;;;;;;;;5053756;28;45450;-84
2022/04/16 00:56:39;;;;;;;;;22.75;19.25;;;;;;;;5053884;28;45532;-84
2022/04/16 00:59:04;;;;;;;;;21.00;18.50;;;;;;;;5053593;28;46147;-83
2022/04/16 01:01:30;;;;;;;;;18.00;16.75;;;;;;;;5056047;28;45403;-85
2022/04/16 01:03:55;;;;;;;;;21.00;19.25;;;;;;;;5054087;28;45268;-84
2022/04/16 01:06:21;;;;;;;;;17.75;14.00;;;;;;;;5053749;28;45430;-82
2022/04/16 01:08:46;;;;;;;;;16.00;14.00;;;;;;;;5054408;28;46168;-86
2022/04/16 01:11:12;;;;;;;;;23.50;22.50;;;;;;;;5053403;28;45518;-84
2022/04/16 01:13:37;;;;;;;;;27.75;22.25;;;;;;;;5056195;28;45401;-82
2022/04/16 01:16:04;;;;;;;;;22.00;18.50;;;;;;;;5054150;28;45642;-83
2022/04/16 01:18:29;;;;;;;;;28.00;22.25;;;;;;;;5053061;28;47200;-82
2022/04/16 01:20:55;;;;;;;;;20.00;19.25;;;;;;;;5053294;28;45471;-83
2022/04/16 01:23:20;;;;;;;;;21.75;19.50;;;;;;;;5053372;28;45371;-85
2022/04/16 01:25:45;;;;;;;;;24.50;22.50;;;;;;;;5054224;28;45498;-83
2022/04/16 01:28:12;;;;;;;;;19.75;16.75;;;;;;;;5054537;28;46147;-83
2022/04/16 01:30:37;;;;;;;;;24.75;21.50;;;;;;;;5052373;28;45357;-83
2022/04/16 01:33:03;;;;;;;;;18.75;17.00;;;;;;;;5051428;28;45427;-83
2022/04/16 01:35:29;;;;;;;;;23.50;20.75;;;;;;;;5053568;28;45225;-83
2022/04/16 01:37:54;;;;;;;;;21.00;20.00;;;;;;;;5053577;28;45308;-84
2022/04/16 01:40:25;;;;;;;;;19.00;16.50;;;;;;;;5054703;28;45633;-83
2022/04/16 01:42:51;;;;;;;;;24.50;20.00;;;;;;;;5053155;28;45626;-83
2022/04/16 01:45:17;;;;;;;;;20.75;20.75;;;;;;;;5052809;28;45389;-83
2022/04/16 01:47:43;;;;;;;;;23.50;21.75;;;;;;;;5052694;28;45992;-84
2022/04/16 01:50:09;;;;;;;;;22.00;21.00;;;;;;;;5053065;28;45932;-85
2022/04/16 01:52:35;;;;;;;;;28.00;23.00;;;;;;;;5055497;28;45533;-85
2022/04/16 01:55:00;;;;;;;;;19.00;18.75;;;;;;;;5054972;28;45603;-85
2022/04/16 01:57:25;;;;;;;;;24.50;23.75;;;;;;;;5052935;28;46037;-85
2022/04/16 01:59:52;;;;;;;;;21.75;19.75;;;;;;;;5052295;28;45428;-85
2022/04/16 02:02:19;;;;;;;;;21.50;19.00;;;;;;;;5053054;28;45534;-82
2022/04/16 02:04:44;;;;;;;;;16.00;16.00;;;;;;;;5054108;28;45404;-82
2022/04/16 02:07:10;;;;;;;;;19.50;15.25;;;;;;;;5053630;28;45387;-82
2022/04/16 02:09:35;;;;;;;;;20.50;15.50;;;;;;;;5052299;28;45489;-82
2022/04/16 02:12:00;;;;;;;;;20.50;19.25;;;;;;;;5053173;28;45942;-82
2022/04/16 02:14:25;;;;;;;;;20.25;17.50;;;;;;;;5052873;28;45451;-82
2022/04/16 02:16:51;;;;;;;;;20.75;20.25;;;;;;;;5052700;28;47211;-86
2022/04/16 02:19:16;;;;;;;;;22.50;20.75;;;;;;;;5055199;28;45213;-86
2022/04/16 02:21:43;;;;;;;;;25.00;23.00;;;;;;;;5053320;28;45529;-86
2022/04/16 02:24:08;;;;;;;;;24.50;21.50;;;;;;;;5051728;28;45481;-86
2022/04/16 02:26:33;;;;;;;;;24.00;20.00;;;;;;;;5052871;28;46053;-82
2022/04/16 02:29:01;;;;;;;;;23.25;19.25;;;;;;;;5053698;28;45386;-82
2022/04/16 02:31:27;;;;;;;;;19.25;18.25;;;;;;;;5053854;28;45325;-82
2022/04/16 02:33:52;;;;;;;;;21.25;20.50;;;;;;;;5052333;28;45359;-82
2022/04/16 02:36:19;;;;;;;;;21.75;18.25;;;;;;;;5052403;28;46260;-82
2022/04/16 02:38:44;;;;;;;;;25.00;24.50;;;;;;;;5050836;28;45310;-82
2022/04/16 02:41:09;;;;;;;;;23.00;21.75;;;;;;;;5052513;28;46552;-82
2022/04/16 02:43:34;;;;;;;;;23.75;21.00;;;;;;;;5054488;28;45297;-84
2022/04/16 02:48:43;;;;;;;;;26.50;20.75;;;;;;;;5051869;28;45372;-84
2022/04/16 02:51:08;;;;;;;;;22.50;17.00;;;;;;;;5053420;28;45328;-85
2022/04/16 02:53:34;;;;;;;;;21.25;19.00;;;;;;;;5054697;28;45538;-84
2022/04/16 02:56:00;;;;;;;;;29.00;24.50;;;;;;;;5055955;28;46010;-83
2022/04/16 02:58:25;;;;;;;;;26.25;22.75;;;;;;;;5057345;28;45369;-84
2022/04/16 03:00:50;;;;;;;;;21.00;18.75;;;;;;;;5054640;28;45399;-83
2022/04/16 03:03:15;;;;;;;;;23.25;21.00;;;;;;;;5055183;28;45352;-84
2022/04/16 03:05:41;;;;;;;;;17.25;16.25;;;;;;;;5056080;28;46236;-82
2022/04/16 03:08:07;;;;;;;;;24.50;22.50;;;;;;;;5056743;28;45411;-83
2022/04/16 03:10:32;;;;;;;;;24.50;23.75;;;;;;;;5053774;28;45367;-84
2022/04/16 03:12:57;;;;;;;;;29.75;24.75;;;;;;;;5056362;28;45325;-84
2022/04/16 03:18:07;;;;;;;;;24.25;21.50;;;;;;;;5056376;28;47915;-85
2022/04/16 03:20:33;;;;;;;;;24.00;23.00;;;;;;;;5056446;28;45559;-84
2022/04/16 03:22:59;;;;;;;;;30.00;28.25;;;;;;;;5057774;28;45512;-84
2022/04/16 03:25:25;;;;;;;;;30.75;25.75;;;;;;;;5057972;28;46261;-84
2022/04/16 03:27:50;;;;;;;;;33.50;29.50;;;;;;;;5055290;28;45517;-84
2022/04/16 03:30:15;;;;;;;;;30.25;27.25;;;;;;;;5056599;28;45674;-84
2022/04/16 03:32:41;;;;;;;;;27.75;23.00;;;;;;;;5055634;28;45589;-85
2022/04/16 03:35:07;;;;;;;;;26.50;23.75;;;;;;;;5055631;28;46303;-85
2022/04/16 03:37:32;;;;;;;;;39.25;33.75;;;;;;;;5058373;28;45547;-84
2022/04/16 03:39:58;;;;;;;;;24.75;22.25;;;;;;;;5054379;28;45450;-85
2022/04/16 03:42:23;;;;;;;;;33.25;29.75;;;;;;;;5055304;28;45523;-81
2022/04/16 03:44:48;;;;;;;;;31.25;26.00;;;;;;;;5055347;28;46258;-85
2022/04/16 03:47:13;;;;;;;;;29.25;28.00;;;;;;;;5056070;28;45477;-85
2022/04/16 03:49:38;;;;;;;;;33.00;27.25;;;;;;;;5057585;28;45636;-86
2022/04/16 03:52:04;;;;;;;;;32.50;29.25;;;;;;;;5055529;28;45449;-86
2022/04/16 04:00:00;;;;;;;;;26.00;20.75;;;;;;;;5055468;28;45462;-84
2022/04/16 04:02:29;;;;;;;;;27.50;24.75;;;;;;;;5055619;28;45431;-85
2022/04/16 04:04:54;;;;;;;;;34.25;31.00;;;;;;;;5056195;28;46382;-84
2022/04/16 04:07:20;;;;;;;;;31.75;26.25;;;;;;;;5057120;28;45541;-85
2022/04/16 04:09:45;;;;;;;;;39.25;33.00;;;;;;;;5058189;28;45335;-84
2022/04/16 04:12:11;;;;;;;;;37.00;31.25;;;;;;;;5054014;28;45497;-85
2022/04/16 04:14:38;;;;;;;;;35.25;31.75;;;;;;;;5055275;28;46355;-86
2022/04/16 04:17:06;;;;;;;;;38.75;32.00;;;;;;;;5054889;28;45443;-83
2022/04/16 04:19:31;;;;;;;;;36.50;31.50;;;;;;;;5056493;28;45292;-83
2022/04/16 04:21:56;;;;;;;;;43.00;33.75;;;;;;;;5052927;28;45211;-84
2022/04/16 04:24:21;;;;;;;;;34.50;30.00;;;;;;;;5055307;28;45520;-85
2022/04/16 04:26:46;;;;;;;;;38.25;33.00;;;;;;;;5053257;28;45480;-84
2022/04/16 04:29:11;;;;;;;;;38.25;31.00;;;;;;;;5054760;28;45490;-82
2022/04/16 04:31:37;;;;;;;;;35.25;31.50;;;;;;;;5055894;28;45480;-81
2022/04/16 04:34:02;;;;;;;;;41.75;34.50;;;;;;;;5055036;28;46939;-81
2022/04/16 04:36:27;;;;;;;;;36.00;32.75;;;;;;;;5054074;28;45678;-81
2022/04/16 04:38:53;;;;;;;;;37.25;33.25;;;;;;;;5053729;28;45589;-80
2022/04/16 04:41:18;;;;;;;;;35.25;28.75;;;;;;;;5053486;28;45509;-80
2022/04/16 04:43:43;;;;;;;;;42.25;34.00;;;;;;;;5055371;28;46183;-80
2022/04/16 04:46:08;;;;;;;;;34.50;31.75;;;;;;;;5054724;28;45475;-80
2022/04/16 04:48:33;;;;;;;;;36.25;32.00;;;;;;;;5053696;28;45304;-81
2022/04/16 04:50:59;;;;;;;;;39.00;33.50;;;;;;;;5053472;28;45564;-81
2022/04/16 04:53:24;;;;;;;;;38.25;33.25;;;;;;;;5053441;28;45621;-81
2022/04/16 04:55:49;;;;;;;;;39.75;34.50;;;;;;;;5053513;28;45312;-81
2022/04/16 04:58:14;;;;;;;;;41.00;33.00;;;;;;;;5041013;28;45411;-81
2022/04/16 05:00:39;;;;;;;;;39.00;33.00;;;;;;;;5052911;28;45528;-81
2022/04/16 05:03:05;;;;;;;;;41.00;32.25;;;;;;;;5052201;28;46813;-82
2022/04/16 05:05:30;;;;;;;;;36.25;31.00;;;;;;;;5053056;28;45417;-82
2022/04/16 05:07:55;;;;;;;;;42.00;35.50;;;;;;;;5055191;28;45419;-81
2022/04/16 05:10:21;;;;;;;;;37.50;33.00;;;;;;;;5061014;28;45495;-81
2022/04/16 05:12:47;;;;;;;;;39.00;33.75;;;;;;;;5052763;28;46261;-81
2022/04/16 05:15:12;;;;;;;;;45.75;37.50;;;;;;;;5052030;28;45418;-81
2022/04/16 05:17:37;;;;;;;;;38.75;33.75;;;;;;;;5053286;28;45487;-81
2022/04/16 05:20:04;;;;;;;;;43.50;36.00;;;;;;;;5037683;28;45419;-82
2022/04/16 05:22:29;;;;;;;;;39.00;33.50;;;;;;;;5054770;28;45390;-82
2022/04/16 05:24:55;;;;;;;;;39.00;33.25;;;;;;;;5051985;28;45448;-82
2022/04/16 05:27:20;;;;;;;;;44.00;36.00;;;;;;;;5052651;28;45341;-81
2022/04/16 05:30:06;;;;;;;;;43.00;36.00;;;;;;;;5052758;28;45400;-81
2022/04/16 05:32:35;;;;;;;;;46.75;36.75;;;;;;;;5052679;28;46354;-82
2022/04/16 05:35:01;;;;;;;;;48.25;37.00;;;;;;;;5053343;28;45286;-80
2022/04/16 05:37:26;;;;;;;;;49.00;40.00;;;;;;;;5055023;28;45318;-81
2022/04/16 05:39:51;;;;;;;;;45.25;37.25;;;;;;;;5052404;28;45322;-81
2022/04/16 05:42:16;;;;;;;;;46.75;35.50;;;;;;;;5052308;28;46385;-81
2022/04/16 05:44:41;;;;;;;;;48.00;38.00;;;;;;;;5052634;28;45379;-81
2022/04/16 05:47:07;;;;;;;;;42.25;35.50;;;;;;;;5052421;28;45365;-80
2022/04/16 05:49:32;;;;;;;;;44.75;36.25;;;;;;;;5054099;28;45290;-81
2022/04/16 05:51:57;;;;;;;;;47.50;38.00;;;;;;;;5038021;28;46120;-80
2022/04/16 05:54:22;;;;;;;;;47.25;39.25;;;;;;;;5051481;28;45428;-80
2022/04/16 05:56:48;;;;;;;;;47.00;38.00;;;;;;;;5052072;28;45432;-80
2022/04/16 05:59:13;;;;;;;;;45.50;37.75;;;;;;;;5051620;28;45415;-79
2022/04/16 06:01:38;;;;;;;;;45.50;35.50;;;;;;;;5053377;28;46100;-81
2022/04/16 06:04:03;;;;;;;;;44.25;33.75;;;;;;;;5038790;28;45368;-82
2022/04/16 06:06:29;;;;;;;;;44.25;37.00;;;;;;;;5050519;28;45491;-82
2022/04/16 06:08:54;;;;;;;;;42.25;34.00;;;;;;;;5051557;28;46060;-83
2022/04/16 06:11:20;;;;;;;;;45.00;35.25;;;;;;;;5052655;28;45561;-81
2022/04/16 06:13:45;;;;;;;;;44.25;34.75;;;;;;;;5053213;28;45313;-82
2022/04/16 06:16:11;;;;;;;;;43.00;38.25;;;;;;;;5053863;28;45245;-82
2022/04/16 06:18:36;;;;;;;;;35.75;33.25;;;;;;;;5052655;28;45506;-82
2022/04/16 06:21:01;;;;;;;;;44.25;34.50;;;;;;;;5052232;28;45418;-82
2022/04/16 06:23:26;;;;;;;;;38.75;33.75;;;;;;;;5055297;28;45407;-81
2022/04/16 06:25:52;;;;;;;;;38.75;34.50;;;;;;;;5060558;28;45278;-83
2022/04/16 06:28:17;;;;;;;;;41.00;34.50;;;;;;;;5058401;28;45322;-82
2022/04/16 06:30:42;;;;;;;;;40.75;34.75;;;;;;;;5055221;28;46234;-83
2022/04/16 06:33:07;;;;;;;;;42.00;36.75;;;;;;;;5055160;28;45542;-82
2022/04/16 06:35:32;;;;;;;;;45.00;37.75;;;;;;;;5055932;28;45309;-82
2022/04/16 06:37:57;;;;;;;;;47.00;39.75;;;;;;;;5038096;28;47234;-82
2022/04/16 06:40:23;;;;;;;;;37.00;34.25;;;;;;;;5057012;28;45700;-81
2022/04/16 06:42:52;;;;;;;;;40.25;34.50;;;;;;;;5053880;28;45346;-81
2022/04/16 06:45:17;;;;;;;;;39.50;35.00;;;;;;;;5055964;28;45384;-83
2022/04/16 06:47:42;;;;;;;;;37.75;34.25;;;;;;;;5055107;28;45288;-83
2022/04/16 06:50:08;;;;;;;;;41.50;35.75;;;;;;;;5034184;28;47307;-83
2022/04/16 06:52:33;;;;;;;;;43.50;34.50;;;;;;;;5056681;28;45311;-82
2022/04/16 06:54:59;;;;;;;;;41.25;33.75;;;;;;;;5055149;28;45531;-82
2022/04/16 06:57:27;;;;;;;;;36.75;33.00;;;;;;;;5057894;28;45548;-83
2022/04/16 06:59:52;;;;;;;;;46.50;37.00;;;;;;;;5064658;28;47108;-83
2022/04/16 07:02:17;;;;;;;;;42.25;36.00;;;;;;;;5066121;28;45294;-83
2022/04/16 07:04:42;;;;;;;;;41.75;33.25;;;;;;;;5058743;28;45281;-79
2022/04/16 07:07:11;;;;;;;;;40.00;35.00;;;;;;;;5056389;28;45591;-83
2022/04/16 07:09:39;;;;;;;;;44.00;35.50;;;;;;;;5054437;28;45390;-82
2022/04/16 07:12:09;;;;;;;;;43.25;37.50;;;;;;;;5055514;28;45451;-82
2022/04/16 07:14:35;;;;;;;;;47.00;38.25;;;;;;;;5053661;28;45304;-82
2022/04/16 07:17:01;;;;;;;;;39.50;31.00;;;;;;;;5054850;28;45479;-81
2022/04/16 07:19:27;;;;;;;;;39.25;34.50;;;;;;;;5056222;28;46281;-83
2022/04/16 07:21:54;;;;;;;;;37.25;35.25;;;;;;;;5055051;28;45352;-82
2022/04/16 07:24:19;;;;;;;;;42.25;37.00;;;;;;;;5053438;28;45295;-82
2022/04/16 07:26:47;;;;;;;;;29.75;28.75;;;;;;;;5054713;28;45345;-83
2022/04/16 07:29:13;;;;;;;;;38.25;33.25;;;;;;;;5054433;28;45437;-81
2022/04/16 07:31:39;;;;;;;;;43.25;35.50;;;;;;;;5055550;28;45226;-83
2022/04/16 07:34:04;;;;;;;;;46.00;36.75;;;;;;;;5055212;28;45453;-82
2022/04/16 07:36:29;;;;;;;;;39.50;34.00;;;;;;;;5054624;28;45392;-82
2022/04/16 07:38:54;;;;;;;;;44.75;38.00;;;;;;;;5054121;28;45598;-81
2022/04/16 07:41:20;;;;;;;;;52.25;37.25;;;;;;;;5034624;28;45420;-82
2022/04/16 07:43:45;;;;;;;;;41.75;36.00;;;;;;;;5055035;28;45454;-84
2022/04/16 07:46:10;;;;;;;;;41.25;34.50;;;;;;;;5055539;28;47403;-82
2022/04/16 07:48:37;;;;;;;;;38.25;34.75;;;;;;;;5053891;28;46938;-80
2022/04/16 07:51:03;;;;;;;;;42.50;34.50;;;;;;;;5054868;28;45438;-82
2022/04/16 07:53:29;;;;;;;;;43.00;35.50;;;;;;;;5055168;28;45811;-82
2022/04/16 07:55:54;;;;;;;;;44.25;35.75;;;;;;;;5053510;28;45399;-83
2022/04/16 07:58:19;;;;;;;;;37.75;31.25;;;;;;;;5054255;28;46271;-82
2022/04/16 08:00:44;;;;;;;;;39.75;34.50;;;;;;;;5052096;28;45407;-82
2022/04/16 08:03:10;;;;;;;;;41.25;36.50;;;;;;;;5054163;28;45921;-82
2022/04/16 08:05:35;;;;;;;;;45.75;38.00;;;;;;;;5053892;28;45396;-82
2022/04/16 08:08:00;;;;;;;;;40.75;36.50;;;;;;;;5036290;28;47097;-82
2022/04/16 08:10:25;;;;;;;;;39.50;35.50;;;;;;;;5054193;28;45536;-82
2022/04/16 08:12:50;;;;;;;;;48.00;36.00;;;;;;;;5053047;28;45469;-82
2022/04/16 08:15:16;;;;;;;;;36.50;30.00;;;;;;;;5053004;28;45413;-82
2022/04/16 08:17:41;;;;;;;;;38.25;34.25;;;;;;;;5060416;28;45978;-82
2022/04/16 08:20:07;;;;;;;;;44.75;38.25;;;;;;;;5059848;28;45237;-83
2022/04/16 08:22:34;;;;;;;;;44.75;34.75;;;;;;;;5056617;28;45511;-83
2022/04/16 08:27:43;;;;;;;;;34.75;32.00;;;;;;;;5053309;28;45518;-82
2022/04/16 08:30:10;;;;;;;;;39.25;33.50;;;;;;;;5053132;28;45338;-81
2022/04/16 08:32:35;;;;;;;;;40.25;35.75;;;;;;;;5053579;28;45341;-84
2022/04/16 08:35:00;;;;;;;;;36.75;28.75;;;;;;;;5053688;28;45311;-83
2022/04/16 08:37:26;;;;;;;;;32.50;26.00;;;;;;;;5054845;28;45615;-83
2022/04/16 08:39:51;;;;;;;;;30.00;27.50;;;;;;;;5053041;28;45302;-83
2022/04/16 08:42:17;;;;;;;;;39.00;33.75;;;;;;;;5053064;28;45407;-82
2022/04/16 08:44:42;;;;;;;;;35.75;32.25;;;;;;;;5053269;28;45470;-81
2022/04/16 08:47:08;;;;;;;;;39.00;31.75;;;;;;;;5052107;28;45595;-81
2022/04/16 08:49:34;;;;;;;;;37.25;33.25;;;;;;;;5054142;28;45446;-81
2022/04/16 08:51:59;;;;;;;;;39.00;36.50;;;;;;;;5053119;28;45352;-81
2022/04/16 08:54:25;;;;;;;;;45.25;37.50;;;;;;;;5043665;28;45419;-80
2022/04/16 08:56:50;;;;;;;;;37.25;31.75;;;;;;;;5057416;28;45280;-80
2022/04/16 08:59:16;;;;;;;;;41.00;34.25;;;;;;;;5052020;28;45432;-84
2022/04/16 09:01:41;;;;;;;;;41.25;36.25;;;;;;;;5055160;28;45442;-84
2022/04/16 09:04:06;;;;;;;;;37.75;35.00;;;;;;;;5055078;28;45566;-84
2022/04/16 09:06:31;;;;;;;;;34.00;31.75;;;;;;;;5063442;28;45444;-82
2022/04/16 09:08:56;;;;;;;;;33.25;31.25;;;;;;;;5061940;27;45477;-83
2022/04/16 09:11:24;;;;;;;;;32.00;28.75;;;;;;;;5061965;28;45462;-84
2022/04/16 09:13:49;;;;;;;;;37.25;32.00;;;;;;;;5054611;28;45263;-84
2022/04/16 09:16:14;;;;;;;;;30.40;26.80;;;;;;;;5054261;28;45358;-84
2022/04/16 09:18:50;;;;;;;;;42.25;32.75;;;;;;;;5045866;28;45506;-84
2022/04/16 09:21:16;;;;;;;;;37.50;31.50;;;;;;;;5058364;28;45345;-83
2022/04/16 09:23:50;;;;;;;;;35.00;32.50;;;;;;;;5052867;28;45405;-82
2022/04/16 09:26:33;;;;;;;;;37.25;29.75;;;;;;;;5052707;28;47209;-83
2022/04/16 09:29:09;;;;;;;;;36.25;31.25;;;;;;;;5052753;28;45287;-83
2022/04/16 09:31:35;;;;;;;;;38.00;32.25;;;;;;;;5061174;28;45368;-85
2022/04/16 09:34:00;;;;;;;;;34.00;31.00;;;;;;;;5059085;28;45510;-85
2022/04/16 09:36:26;;;;;;;;;33.00;26.50;;;;;;;;5053088;28;47269;-84
2022/04/16 09:39:01;;;;;;;;;27.25;26.25;;;;;;;;5054004;28;45493;-81
2022/04/16 09:41:30;;;;;;;;;39.75;34.50;;;;;;;;5055970;28;45447;-83
2022/04/16 09:43:56;;;;;;;;;21.25;21.25;;;;;;;;5052523;28;45333;-83
2022/04/16 09:46:23;;;;;;;;;29.75;25.25;;;;;;;;5051479;28;46136;-82
2022/04/16 09:48:50;;;;;;;;;25.25;24.75;;;;;;;;5051331;28;45554;-82
2022/04/16 09:51:16;;;;;;;;;35.00;30.75;;;;;;;;5051921;28;45553;-82
2022/04/16 09:53:43;;;;;;;;;25.50;22.50;;;;;;;;5052419;28;45376;-81
2022/04/16 09:56:11;;;;;;;;;28.00;24.25;;;;;;;;5050253;28;46976;-83
2022/04/16 09:58:38;;;;;;;;;27.50;22.50;;;;;;;;5056658;28;45797;-86
2022/04/16 10:01:03;;;;;;;;;23.50;22.50;;;;;;;;5055083;28;45445;-89
2022/04/16 10:03:29;;;;;;;;;21.00;19.25;;;;;;;;5055608;28;45299;-88
2022/04/16 10:05:58;;;;;;;;;21.50;20.50;;;;;;;;5059361;28;46625;-89
2022/04/16 10:08:25;;;;;;;;;25.50;25.50;;;;;;;;5059440;28;45392;-88
2022/04/16 10:10:55;;;;;;;;;24.50;22.75;;;;;;;;5065641;28;45315;-86
2022/04/16 10:13:22;;;;;;;;;17.75;16.50;;;;;;;;5078390;28;45456;-87
2022/04/16 10:16:05;;;;;;;;;16.25;15.00;;;;;;;;5068016;28;46163;-89
2022/04/16 10:18:33;;;;;;;;;13.75;12.50;;;;;;;;5039535;28;46150;-87
2022/04/16 10:20:59;;;;;;;;;15.75;13.00;;;;;;;;5061413;28;45988;-83
2022/04/16 10:23:25;;;;;;;;;15.00;13.50;;;;;;;;5053020;28;45460;-86
2022/04/16 10:25:51;;;;;;;;;34.25;29.25;;;;;;;;5052394;28;46129;-82
2022/04/16 10:28:19;;;;;;;;;21.25;18.00;;;;;;;;5050544;28;45323;-83
2022/04/16 10:30:51;;;;;;;;;21.00;19.25;;;;;;;;5052012;28;45319;-83
2022/04/16 10:33:18;;;;;;;;;21.00;19.25;;;;;;;;5051482;28;46015;-85
2022/04/16 10:35:51;;;;;;;;;17.25;17.00;;;;;;;;5051951;28;46330;-81
2022/04/16 10:38:31;;;;;;;;;23.75;22.75;;;;;;;;5051707;28;45375;-83
2022/04/16 10:40:57;;;;;;;;;20.00;18.75;;;;;;;;5052002;28;45511;-82
2022/04/16 10:43:29;;;;;;;;;19.00;18.75;;;;;;;;5053663;28;45461;-85
2022/04/16 10:46:05;;;;;;;;;18.50;14.75;;;;;;;;5051463;28;45387;-82
2022/04/16 10:48:31;;;;;;;;;16.00;13.75;;;;;;;;5052057;28;45586;-86
2022/04/16 10:50:58;;;;;;;;;16.00;14.00;;;;;;;;5054785;28;45460;-84
2022/04/16 10:53:33;;;;;;;;;20.50;15.75;;;;;;;;5068189;28;44833;-81
2022/04/16 10:56:25;;;;;;;;;15.00;13.00;;;;;;;;5063996;28;45545;-84
2022/04/16 10:59:00;;;;;;;;;11.00;9.75;;;;;;;;5048677;28;45400;-83
2022/04/16 11:01:26;;;;;;;;;15.00;13.50;;;;;;;;5052991;28;45296;-83
2022/04/16 11:03:54;;;;;;;;;8.75;8.00;;;;;;;;5045288;28;45305;-83
2022/04/16 11:06:19;;;;;;;;;15.25;14.25;;;;;;;;5051383;28;47239;-83
2022/04/16 11:08:47;;;;;;;;;13.75;11.50;;;;;;;;5051290;28;45359;-84
2022/04/16 11:11:14;;;;;;;;;10.00;9.50;;;;;;;;5052271;28;45582;-83
2022/04/16 11:13:40;;;;;;;;;10.75;10.75;;;;;;;;5054784;28;45365;-83
2022/04/16 11:16:07;;;;;;;;;12.00;9.75;;;;;;;;5053544;28;45398;-84
2022/04/16 11:18:41;;;;;;;;;17.00;15.50;;;;;;;;5038855;28;45508;-81
2022/04/16 11:21:09;;;;;;;;;14.00;14.00;;;;;;;;5056646;28;45429;-83
2022/04/16 11:23:42;;;;;;;;;15.00;14.75;;;;;;;;5054000;28;45423;-83
2022/04/16 11:34:27;;;;;;;;;9.25;9.25;;;;;;;;5057036;28;45213;-83
2022/04/16 11:36:52;;;;;;;;;13.00;11.50;;;;;;;;5053432;28;46177;-83
2022/04/16 11:39:22;;;;;;;;;9.50;9.50;;;;;;;;5054356;28;45477;-83
2022/04/16 11:41:51;;;;;;;;;12.75;11.25;;;;;;;;5054383;28;45454;-83
2022/04/16 11:44:16;;;;;;;;;13.00;11.50;;;;;;;;5054766;28;45348;-83
2022/04/16 11:46:42;;;;;;;;;10.50;10.50;;;;;;;;5056166;28;46248;-82
2022/04/16 11:49:08;;;;;;;;;6.50;5.00;;;;;;;;5055391;28;45577;-82
2022/04/16 11:51:38;;;;;;;;;6.25;5.25;;;;;;;;5054551;28;45305;-82
2022/04/16 11:54:03;;;;;;;;;8.00;8.00;;;;;;;;5055866;28;45621;-79
2022/04/16 11:56:28;;;;;;;;;8.00;8.00;;;;;;;;5053745;28;46165;-80
2022/04/16 11:58:54;;;;;;;;;7.00;6.25;;;;;;;;5053379;28;45293;-80
2022/04/16 12:01:20;;;;;;;;;7.25;6.25;;;;;;;;5055548;28;45476;-81
2022/04/16 12:03:45;;;;;;;;;8.50;7.50;;;;;;;;5054527;28;45506;-86
2022/04/16 12:06:11;;;;;;;;;7.00;7.00;;;;;;;;5054442;28;46206;-87
2022/04/16 12:08:37;;;;;;;;;5.25;4.75;;;;;;;;5048888;28;45519;-86
2022/04/16 12:11:02;;;;;;;;;4.50;4.50;;;;;;;;5036682;28;45472;-85
2022/04/16 12:13:35;;;;;;;;;6.00;6.00;;;;;;;;5060081;28;45214;-85
2022/04/16 12:16:04;;;;;;;;;5.25;5.25;;;;;;;;5048736;28;46295;-85
2022/04/16 12:18:34;;;;;;;;;4.75;4.75;;;;;;;;5055171;28;45257;-86
2022/04/16 12:21:04;;;;;;;;;19.50;18.50;;;;;;;;5051574;28;45467;-88
2022/04/16 12:23:30;;;;;;;;;13.25;11.25;;;;;;;;5061214;28;44783;-89
2022/04/16 12:26:21;;;;;;;;;9.00;6.00;;;;;;;;5056126;28;47105;-89
2022/04/16 12:28:47;;;;;;;;;7.25;7.25;;;;;;;;5053621;28;45357;-87
2022/04/16 12:31:12;;;;;;;;;8.20;7.40;;;;;;;;5057059;28;45402;-87
2022/04/16 12:33:37;;;;;;;;;8.50;8.50;;;;;;;;5054951;28;45386;-87
2022/04/16 12:36:02;;;;;;;;;6.25;5.50;;;;;;;;5054533;28;46438;-88
2022/04/16 12:38:28;;;;;;;;;5.00;4.50;;;;;;;;5052653;28;44979;-87
2022/04/16 12:41:08;;;;;;;;;2.75;1.50;;;;;;;;5054649;28;45166;-86
2022/04/16 12:43:33;;;;;;;;;8.00;8.00;;;;;;;;5055994;28;45418;-86
2022/04/16 12:45:58;;;;;;;;;4.75;4.75;;;;;;;;5054079;28;45563;-86
2022/04/16 12:48:23;;;;;;;;;7.25;7.00;;;;;;;;5055726;28;45331;-85
2022/04/16 12:50:49;;;;;;;;;3.50;3.00;;;;;;;;5052929;28;45489;-84
2022/04/16 12:53:14;;;;;;;;;5.75;4.75;;;;;;;;5052294;28;45446;-84
2022/04/16 12:55:39;;;;;;;;;6.75;5.00;;;;;;;;5053995;28;46341;-85
2022/04/16 12:58:05;;;;;;;;;5.25;3.00;;;;;;;;5054218;28;45348;-88
2022/04/16 13:00:31;;;;;;;;;5.50;4.75;;;;;;;;5049282;28;45397;-89
2022/04/16 13:02:59;;;;;;;;;5.00;4.00;;;;;;;;5052442;28;49142;-85
2022/04/16 13:05:25;;;;;;;;;6.75;4.25;;;;;;;;5050755;28;46989;-86
2022/04/16 13:07:50;;;;;;;;;6.00;4.75;;;;;;;;5054269;28;45557;-86
2022/04/16 13:10:16;;;;;;;;;5.00;5.00;;;;;;;;5053185;28;45350;-86
2022/04/16 13:12:41;;;;;;;;;3.50;3.50;;;;;;;;5054357;28;45582;-84
2022/04/16 13:15:07;;;;;;;;;3.50;3.50;;;;;;;;5058354;28;45360;-86
2022/04/16 13:17:33;;;;;;;;;6.00;4.00;;;;;;;;5054357;28;45439;-88
2022/04/16 13:19:59;;;;;;;;;5.75;4.50;;;;;;;;5054828;28;45507;-88
2022/04/16 13:22:25;;;;;;;;;5.00;5.00;;;;;;;;5057928;28;45382;-89
2022/04/16 13:24:50;;;;;;;;;4.00;2.00;;;;;;;;5058115;28;46237;-88
2022/04/16 13:27:16;;;;;;;;;6.25;6.25;;;;;;;;5058755;28;45133;-88
2022/04/16 13:29:42;;;;;;;;;4.50;4.50;;;;;;;;5059667;28;45203;-88
2022/04/16 13:32:08;;;;;;;;;5.75;4.00;;;;;;;;5034817;28;45575;-89
2022/04/16 13:34:33;;;;;;;;;5.50;4.50;;;;;;;;5051744;28;47498;-90
2022/04/16 13:36:59;;;;;;;;;5.25;5.25;;;;;;;;5053219;28;45225;-89
2022/04/16 13:42:08;;;;;;;;;4.00;4.00;;;;;;;;5054277;28;45256;-89
2022/04/16 13:44:34;;;;;;;;;4.50;4.50;;;;;;;;5055323;28;46308;-89
2022/04/16 13:46:59;;;;;;;;;7.00;5.50;;;;;;;;5053379;28;45266;-84
2022/04/16 13:49:26;;;;;;;;;5.25;4.25;;;;;;;;5054627;28;45155;-87
2022/04/16 13:51:51;;;;;;;;;5.50;5.50;;;;;;;;5053077;28;45485;-88
2022/04/16 13:54:16;;;;;;;;;5.50;5.50;;;;;;;;5052700;28;46300;-87
2022/04/16 13:56:42;;;;;;;;;5.75;4.25;;;;;;;;5052813;28;45336;-86
2022/04/16 13:59:09;;;;;;;;;12.00;9.25;;;;;;;;5053576;28;45482;-88
2022/04/16 14:01:34;;;;;;;;;7.75;6.50;;;;;;;;5043411;28;45362;-87
2022/04/16 14:03:59;;;;;;;;;3.00;3.00;;;;;;;;5058502;28;45465;-86
2022/04/16 14:06:25;;;;;;;;;4.25;3.00;;;;;;;;5038723;28;45407;-86
2022/04/16 14:08:50;;;;;;;;;5.00;5.00;;;;;;;;5051925;28;45457;-89
2022/04/16 14:11:15;;;;;;;;;3.00;3.00;;;;;;;;5052656;28;45283;-87
2022/04/16 14:13:41;;;;;;;;;2.00;1.00;;;;;;;;5052796;28;46312;-84
2022/04/16 14:16:06;;;;;;;;;2.00;2.00;;;;;;;;5061002;28;45358;-89
2022/04/16 14:18:32;;;;;;;;;3.00;3.00;;;;;;;;5052596;28;45350;-90
2022/04/16 14:20:58;;;;;;;;;4.00;2.75;;;;;;;;5052750;28;45387;-89
2022/04/16 14:23:23;;;;;;;;;4.25;3.25;;;;;;;;5054808;28;46007;-89
2022/04/16 14:25:48;;;;;;;;;3.00;3.00;;;;;;;;5052616;28;45271;-88
2022/04/16 14:28:14;;;;;;;;;3.00;3.00;;;;;;;;5052896;28;45482;-87
2022/04/16 14:30:39;;;;;;;;;6.00;4.25;;;;;;;;5053060;28;45571;-88
2022/04/16 14:33:05;;;;;;;;;3.00;3.00;;;;;;;;5054703;28;47470;-89
2022/04/16 14:35:32;;;;;;;;;4.00;4.00;;;;;;;;5057718;28;45468;-89
2022/04/16 14:37:57;;;;;;;;;5.75;4.50;;;;;;;;5054949;28;45407;-89
2022/04/16 14:40:23;;;;;;;;;2.25;2.25;;;;;;;;5055628;28;45432;-88
2022/04/16 14:42:48;;;;;;;;;3.00;3.00;;;;;;;;5051796;28;47120;-89